Home > Products > Valid Products > TAF

000
FTUS45 KLKN 011100
TAFELY
TAF
KELY 011120Z 0112/0212 18007KT P6SM FEW120
     FM011900 06006KT P6SM VCTS BKN120CB
     FM020300 16007KT P6SM BKN120=



000
FTUS45 KLKN 011100
TAFWMC
TAF
KWMC 011120Z 0112/0212 VRB03KT P6SM FEW120
     FM012000 32007KT P6SM VCTS BKN100CB
     FM020400 35006KT P6SM BKN120=



000
FTUS45 KLKN 011100
TAFTPH
TAF
KTPH 011120Z 0112/0212 35007KT P6SM FEW120 SCT200
     FM012000 20007KT P6SM VCTS BKN120CB
     FM020300 32007KT P6SM BKN120=



000
FTUS45 KLKN 011100
TAFEKO
TAF
KEKO 011120Z 0112/0212 VRB03KT P6SM FEW120
     FM012000 VRB06KT P6SM SCT120 BKN200=



000
FTUS45 KLKN 010500
TAFEKO
TAF
KEKO 010535Z 0106/0206 28012KT P6SM VCSH BKN120
     FM011200 VRB03KT P6SM SCT120
     FM012000 21007KT P6SM SCT120 BKN200=



000
FTUS45 KLKN 010500
TAFTPH
TAF
KTPH 010535Z 0106/0206 VRB06KT P6SM VCSH BKN120
     FM011000 35007KT P6SM FEW120 SCT200
     FM012000 20007KT P6SM VCTS BKN120CB
     FM020300 32007KT P6SM BKN120=



000
FTUS45 KLKN 010500
TAFELY
TAF
KELY 010535Z 0106/0206 VRB06KT P6SM VCSH BKN120
     FM011000 18007KT P6SM SCT120
     FM011900 06006KT P6SM VCTS BKN120CB
     FM020300 16007KT P6SM BKN120=



000
FTUS45 KLKN 010500
TAFWMC
TAF
KWMC 010535Z 0106/0206 VRB06KT P6SM VCSH BKN120
      TEMPO 0106/0108 VRB15G35KT -TSRA OVC100CB
     FM011000 07007KT P6SM FEW120 SCT200
     FM012000 32007KT P6SM VCTS BKN100CB
     FM020400 35006KT P6SM BKN120=



000
FTUS45 KLKN 010500
TAFWMC
TAF
KWMC 010535Z 0106/0206 VRB06KT P6SM VCSH BKN120
      TEMPO 0106/0108 VRB15G35KT -TSRA OVC100CB
     FM011000 07007KT P6SM FEW120 SCT200
     FM012000 32007KT P6SM VCTS BKN100CB
     FM020400 35006KT P6SM BKN120=



000
FTUS45 KLKN 010300 AAA
TAFTPH
TAF AMD
KTPH 010323Z 0103/0124 VRB06KT P6SM VCSH BKN120
     FM010800 35007KT P6SM FEW120 SCT200
     FM012000 20007KT P6SM VCTS BKN120CB=



000
FTUS45 KLKN 010300 AAA
TAFTPH
TAF AMD
KTPH 010323Z 0103/0124 VRB06KT P6SM VCSH BKN120
     FM010800 35007KT P6SM FEW120 SCT200
     FM012000 20007KT P6SM VCTS BKN120CB=



000
FTUS45 KLKN 010300 AAA
TAFELY
TAF AMD
KELY 010319Z 0103/0124 01013KT P6SM VCSH BKN120
      TEMPO 0104/0106 VRB15G40KT -TSRA BKN070CB
     FM010800 18007KT P6SM SCT120
     FM011900 06006KT P6SM VCTS BKN120CB=



000
FTUS45 KLKN 010300 AAA
TAFELY
TAF AMD
KELY 010319Z 0103/0124 01013KT P6SM VCSH BKN120
      TEMPO 0104/0106 VRB15G40KT -TSRA BKN070CB
     FM010800 18007KT P6SM SCT120
     FM011900 06006KT P6SM VCTS BKN120CB=



000
FTUS45 KLKN 010300 AAA
TAFEKO
TAF AMD
KEKO 010315Z 0103/0124 28012KT P6SM VCSH BKN120
      TEMPO 0103/0106 VRB20G40KT -TSRA BKN080CB
     FM010800 VRB03KT P6SM SCT120
     FM012000 21007KT P6SM VCTS BKN100CB=



000
FTUS45 KLKN 010300 AAA
TAFEKO
TAF AMD
KEKO 010315Z 0103/0124 28012KT P6SM VCSH BKN120
      TEMPO 0103/0106 VRB20G40KT -TSRA BKN080CB
     FM010800 VRB03KT P6SM SCT120
     FM012000 21007KT P6SM VCTS BKN100CB=



000
FTUS45 KLKN 010200 AAA
TAFWMC
TAF AMD
KWMC 010257Z 0103/0124 VRB06KT P6SM VCTS BKN120CB
      TEMPO 0103/0106 VRB20G40KT -TSRA OVC100CB
     FM010600 07007KT P6SM FEW120 SCT200
     FM012000 32007KT P6SM VCTS BKN100CB=



000
FTUS45 KLKN 010200 AAA
TAFWMC
TAF AMD
KWMC 010257Z 0103/0124 VRB06KT P6SM VCTS BKN120CB
      TEMPO 0103/0106 VRB20G40KT -TSRA OVC100CB
     FM010600 07007KT P6SM FEW120 SCT200
     FM012000 32007KT P6SM VCTS BKN100CB=



000
FTUS45 KLKN 312300
TAFEKO
TAF
KEKO 312320Z 0100/0124 28012KT P6SM VCTS BKN100CB
      TEMPO 0100/0104 VRB20G40KT -TSRA SCT030CB OVC080
     FM010400 VRB05KT P6SM SCT120=



000
FTUS45 KLKN 312300
TAFWMC
TAF
KWMC 312320Z 0100/0124 28007KT P6SM VCTS BKN100CB
      TEMPO 0100/0103 VRB15G40KT -TSRA BKN070CB
     FM010300 VRB06KT P6SM SCT120
     FM010600 VRB05KT P6SM SKC=



000
FTUS45 KLKN 312300
TAFEKO
TAF
KEKO 312320Z 0100/0124 28012KT P6SM VCTS BKN100CB
      TEMPO 0100/0104 VRB20G40KT -TSRA SCT030CB OVC080
     FM010400 VRB05KT P6SM SCT120=



000
FTUS45 KLKN 312300
TAFELY
TAF
KELY 312320Z 0100/0124 01010KT P6SM VCTS BKN090CB
      TEMPO 0100/0104 VRB15G45KT -TSRA SCT040CB BKN070
     FM010400 18007KT P6SM SCT120=



000
FTUS45 KLKN 312300
TAFTPH
TAF
KTPH 312320Z 0100/0124 27007KT P6SM SCT100
     FM010300 35007KT P6SM FEW120=



000
FTUS45 KLKN 312300
TAFTPH
TAF
KTPH 312320Z 0100/0124 27007KT P6SM SCT100
     FM010300 35007KT P6SM FEW120=



000
FTUS45 KLKN 312300
TAFWMC
TAF
KWMC 312320Z 0100/0124 28007KT P6SM VCTS BKN100CB
      TEMPO 0100/0103 VRB15G40KT -TSRA BKN070CB
     FM010300 VRB06KT P6SM SCT120
     FM010600 VRB05KT P6SM SKC=



000
FTUS45 KLKN 312300
TAFELY
TAF
KELY 312320Z 0100/0124 01010KT P6SM VCTS BKN090CB
      TEMPO 0100/0104 VRB15G45KT -TSRA SCT040CB BKN070
     FM010400 18007KT P6SM SCT120=



000
FTUS45 KLKN 312100 AAA
TAFTPH
TAF AMD
KTPH 312129Z 3121/0118 27007KT P6SM VCTS SCT100CB
     FM010300 36010KT P6SM SCT120 BKN200=



000
FTUS45 KLKN 312100 AAA
TAFTPH
TAF AMD
KTPH 312129Z 3121/0118 27007KT P6SM VCTS SCT100CB
     FM010300 36010KT P6SM SCT120 BKN200=



000
FTUS45 KLKN 312000 AAA
TAFEKO
TAF AMD
KEKO 312038Z 3121/0118 VRB03KT P6SM VCTS BKN100CB
      TEMPO 3121/0101 VRB15G40KT -TSRA BKN090CB
     FM010300 VRB05KT P6SM SCT120 BKN200=



000
FTUS45 KLKN 312000 AAA
TAFEKO
TAF AMD
KEKO 312038Z 3121/0118 VRB03KT P6SM VCTS BKN100CB
      TEMPO 3121/0101 VRB15G40KT -TSRA BKN090CB
     FM010300 VRB05KT P6SM SCT120 BKN200=



000
FTUS45 KLKN 312000 AAA
TAFELY
TAF AMD
KELY 312004Z 3120/0118 02010KT P6SM VCTS BKN090CB
      TEMPO 3121/0101 VRB15G40KT -TSRA BKN080CB
     FM010400 18006KT P6SM SCT120 BKN200=



000
FTUS45 KLKN 312000 AAA
TAFELY
TAF AMD
KELY 312004Z 3120/0118 02010KT P6SM VCTS BKN090CB
      TEMPO 3121/0101 VRB15G40KT -TSRA BKN080CB
     FM010400 18006KT P6SM SCT120 BKN200=



000
FTUS45 KLKN 311700
TAFELY
TAF
KELY 311720Z 3118/0118 VRB03KT P6SM VCTS OVC120CB
     FM312000 01007KT P6SM -TSRA BKN080CB
     FM010400 18006KT P6SM SCT120 BKN200=



000
FTUS45 KLKN 311700
TAFWMC
TAF
KWMC 311720Z 3118/0118 VRB05KT P6SM VCTS SCT120CB BKN200
     FM312100 28007KT P6SM VCTS BKN100CB
     FM010300 08007KT P6SM SCT120 BKN200
     FM010600 VRB05KT P6SM SKC=



000
FTUS45 KLKN 311700
TAFTPH
TAF
KTPH 311720Z 3118/0118 VRB04KT P6SM VCTS SCT120CB BKN200
     FM312000 35007KT P6SM -TSRA BKN100CB
     FM010300 36010KT P6SM SCT120 BKN200=



000
FTUS45 KLKN 311700
TAFTPH
TAF
KTPH 311720Z 3118/0118 VRB04KT P6SM VCTS SCT120CB BKN200
     FM312000 35007KT P6SM -TSRA BKN100CB
     FM010300 36010KT P6SM SCT120 BKN200=



000
FTUS45 KLKN 311700
TAFELY
TAF
KELY 311720Z 3118/0118 VRB03KT P6SM VCTS OVC120CB
     FM312000 01007KT P6SM -TSRA BKN080CB
     FM010400 18006KT P6SM SCT120 BKN200=



000
FTUS45 KLKN 311700
TAFEKO
TAF
KEKO 311720Z 3118/0118 VRB03KT P6SM VCTS SCT120CB BKN200
     FM312100 21007KT P6SM VCTS BKN100CB
     FM010300 VRB05KT P6SM SCT120 BKN200=



000
FTUS45 KLKN 311700
TAFWMC
TAF
KWMC 311720Z 3118/0118 VRB05KT P6SM VCTS SCT120CB BKN200
     FM312100 28007KT P6SM VCTS BKN100CB
     FM010300 08007KT P6SM SCT120 BKN200
     FM010600 VRB05KT P6SM SKC=



000
FTUS45 KLKN 311700
TAFEKO
TAF
KEKO 311720Z 3118/0118 VRB03KT P6SM VCTS SCT120CB BKN200
     FM312100 21007KT P6SM VCTS BKN100CB
     FM010300 VRB05KT P6SM SCT120 BKN200=



000
FTUS45 KLKN 311100
TAFEKO
TAF
KEKO 311120Z 3112/0112 VRB03KT P6SM SCT120 BKN200
     FM312100 21007KT P6SM VCTS BKN100CB
     FM010300 VRB05KT P6SM SCT120 BKN200=



000
FTUS45 KLKN 311100
TAFEKO
TAF
KEKO 311120Z 3112/0112 VRB03KT P6SM SCT120 BKN200
     FM312100 21007KT P6SM VCTS BKN100CB
     FM010300 VRB05KT P6SM SCT120 BKN200=



000
FTUS45 KLKN 311100
TAFELY
TAF
KELY 311120Z 3112/0112 VRB03KT P6SM BKN120
     FM312000 01007KT P6SM -TSRA BKN080CB
     FM010300 VRB06KT P6SM SCT120 BKN200=



000
FTUS45 KLKN 311100
TAFWMC
TAF
KWMC 311120Z 3112/0112 07005KT P6SM SCT120 BKN200
     FM312100 23007KT P6SM VCTS BKN100CB
     FM010300 VRB06KT P6SM SCT120 BKN200=



000
FTUS45 KLKN 311100
TAFWMC
TAF
KWMC 311120Z 3112/0112 07005KT P6SM SCT120 BKN200
     FM312100 23007KT P6SM VCTS BKN100CB
     FM010300 VRB06KT P6SM SCT120 BKN200=



000
FTUS45 KLKN 311100
TAFTPH
TAF
KTPH 311120Z 3112/0112 01006KT P6SM SCT120 BKN200
     FM312000 35007KT P6SM -TSRA BKN100CB
     FM010300 36010KT P6SM SCT120 BKN200=



000
FTUS45 KLKN 311100
TAFELY
TAF
KELY 311120Z 3112/0112 VRB03KT P6SM BKN120
     FM312000 01007KT P6SM -TSRA BKN080CB
     FM010300 VRB06KT P6SM SCT120 BKN200=



000
FTUS45 KLKN 311100
TAFTPH
TAF
KTPH 311120Z 3112/0112 01006KT P6SM SCT120 BKN200
     FM312000 35007KT P6SM -TSRA BKN100CB
     FM010300 36010KT P6SM SCT120 BKN200=



000
FTUS45 KLKN 310500
TAFTPH
TAF
KTPH 310526Z 3106/0106 VRB06KT P6SM SCT120 BKN200
     FM312000 33007KT P6SM -TSRA BKN100CB
     FM010300 36010KT P6SM SCT120 BKN200=



000
FTUS45 KLKN 310500
TAFWMC
TAF
KWMC 310526Z 3106/0106 VRB06KT P6SM SCT120 BKN200
     FM312100 23007KT P6SM VCTS BKN100CB
     FM010300 VRB06KT P6SM SCT120 BKN200=



000
FTUS45 KLKN 310500
TAFEKO
TAF
KEKO 310526Z 3106/0106 VRB06KT P6SM -SHRA BKN120
     FM310800 VRB03KT P6SM SCT120 BKN200
     FM312100 21007KT P6SM VCTS BKN100CB
     FM010300 VRB05KT P6SM SCT120 BKN200=



000
FTUS45 KLKN 310500
TAFWMC
TAF
KWMC 310526Z 3106/0106 VRB06KT P6SM SCT120 BKN200
     FM312100 23007KT P6SM VCTS BKN100CB
     FM010300 VRB06KT P6SM SCT120 BKN200=



000
FTUS45 KLKN 310500
TAFEKO
TAF
KEKO 310526Z 3106/0106 VRB06KT P6SM -SHRA BKN120
     FM310800 VRB03KT P6SM SCT120 BKN200
     FM312100 21007KT P6SM VCTS BKN100CB
     FM010300 VRB05KT P6SM SCT120 BKN200=



000
FTUS45 KLKN 310500
TAFELY
TAF
KELY 310526Z 3106/0106 VRB03KT P6SM SCT120 BKN200
     FM312000 04007KT P6SM -TSRA BKN100CB
     FM010300 VRB06KT P6SM SCT120 BKN200=



000
FTUS45 KLKN 310500
TAFELY
TAF
KELY 310526Z 3106/0106 VRB03KT P6SM SCT120 BKN200
     FM312000 04007KT P6SM -TSRA BKN100CB
     FM010300 VRB06KT P6SM SCT120 BKN200=



000
FTUS45 KLKN 310500
TAFTPH
TAF
KTPH 310526Z 3106/0106 VRB06KT P6SM SCT120 BKN200
     FM312000 33007KT P6SM -TSRA BKN100CB
     FM010300 36010KT P6SM SCT120 BKN200=



000
FTUS45 KLKN 310400 AAA
TAFEKO
TAF AMD
KEKO 310412Z 3104/3124 VRB06KT P6SM -SHRA BKN120
      TEMPO 3104/3106 VRB20G35KT 5SM TSRA BKN090CB
     FM310800 VRB04KT P6SM FEW120
     FM312000 VRB05KT P6SM VCTS BKN100CB=



000
FTUS45 KLKN 310400 AAA
TAFEKO
TAF AMD
KEKO 310412Z 3104/3124 VRB06KT P6SM -SHRA BKN120
      TEMPO 3104/3106 VRB20G35KT 5SM TSRA BKN090CB
     FM310800 VRB04KT P6SM FEW120
     FM312000 VRB05KT P6SM VCTS BKN100CB=



000
FTUS45 KLKN 302300
TAFTPH
TAF
KTPH 302320Z 3100/3124 33012G22KT P6SM VCTS BKN100CB
      TEMPO 3100/3103 VRB15G35KT -TSRA BKN090CB
     FM310300 34014G24KT P6SM VCSH BKN100
     FM310900 35010KT P6SM VCSH BKN090
     FM312000 33007KT P6SM VCTS BKN100CB=



000
FTUS45 KLKN 302300
TAFEKO
TAF
KEKO 302320Z 3100/3124 VRB06KT P6SM VCTS BKN100CB
     FM310300 06005KT P6SM VCSH BKN100
     FM310600 VRB04KT P6SM SCT100
     FM312000 VRB05KT P6SM VCTS BKN100CB=



000
FTUS45 KLKN 302300
TAFWMC
TAF
KWMC 302320Z 3100/3124 31007KT P6SM VCTS SCT090CB
     FM310300 VRB05KT P6SM SCT100 BKN200
     FM312000 23007KT P6SM VCTS BKN100CB=



000
FTUS45 KLKN 302300
TAFELY
TAF
KELY 302320Z 3100/3124 01010KT P6SM VCTS BKN090CB
      TEMPO 3100/3102 VRB15G35KT -TSRA BKN080CB
     FM310400 VRB06KT P6SM BKN090
     FM310700 17007KT P6SM SCT120
     FM312000 04007KT P6SM VCTS BKN100CB=



000
FTUS45 KLKN 302300
TAFEKO
TAF
KEKO 302320Z 3100/3124 VRB06KT P6SM VCTS BKN100CB
     FM310300 06005KT P6SM VCSH BKN100
     FM310600 VRB04KT P6SM SCT100
     FM312000 VRB05KT P6SM VCTS BKN100CB=



000
FTUS45 KLKN 302300
TAFWMC
TAF
KWMC 302320Z 3100/3124 31007KT P6SM VCTS SCT090CB
     FM310300 VRB05KT P6SM SCT100 BKN200
     FM312000 23007KT P6SM VCTS BKN100CB=



000
FTUS45 KLKN 302300
TAFTPH
TAF
KTPH 302320Z 3100/3124 33012G22KT P6SM VCTS BKN100CB
      TEMPO 3100/3103 VRB15G35KT -TSRA BKN090CB
     FM310300 34014G24KT P6SM VCSH BKN100
     FM310900 35010KT P6SM VCSH BKN090
     FM312000 33007KT P6SM VCTS BKN100CB=



000
FTUS45 KLKN 302300
TAFELY
TAF
KELY 302320Z 3100/3124 01010KT P6SM VCTS BKN090CB
      TEMPO 3100/3102 VRB15G35KT -TSRA BKN080CB
     FM310400 VRB06KT P6SM BKN090
     FM310700 17007KT P6SM SCT120
     FM312000 04007KT P6SM VCTS BKN100CB=



000
FTUS45 KLKN 302000 AAA
TAFTPH
TAF AMD
KTPH 302009Z 3020/3118 36010G20KT P6SM SCT120 BKN200
     FM302100 34012G22KT P6SM VCTS BKN090CB
      TEMPO 3022/3102 VRB15G35KT -TSRA BKN080CB
     FM310300 34014G24KT P6SM VCTS BKN100CB
     FM310900 35010KT P6SM VCSH BKN090=



000
FTUS45 KLKN 302000 AAA
TAFTPH
TAF AMD
KTPH 302009Z 3020/3118 36010G20KT P6SM SCT120 BKN200
     FM302100 34012G22KT P6SM VCTS BKN090CB
      TEMPO 3022/3102 VRB15G35KT -TSRA BKN080CB
     FM310300 34014G24KT P6SM VCTS BKN100CB
     FM310900 35010KT P6SM VCSH BKN090=



000
FTUS45 KLKN 302000 AAA
TAFELY
TAF AMD
KELY 302007Z 3020/3118 01009KT P6SM VCTS BKN090CB
      TEMPO 3022/3102 VRB15G35KT -TSRA BKN070CB
     FM310400 VRB06KT P6SM VCTS BKN080CB
     FM310700 17007KT P6SM VCSH BKN090=



000
FTUS45 KLKN 302000 AAA
TAFELY
TAF AMD
KELY 302007Z 3020/3118 01009KT P6SM VCTS BKN090CB
      TEMPO 3022/3102 VRB15G35KT -TSRA BKN070CB
     FM310400 VRB06KT P6SM VCTS BKN080CB
     FM310700 17007KT P6SM VCSH BKN090=



000
FTUS45 KLKN 301700
TAFTPH
TAF
KTPH 301720Z 3018/3118 36008KT P6SM SCT120 BKN200
     FM302100 34008KT P6SM -TSRA BKN090CB
     FM310300 34014G24KT P6SM VCTS BKN100CB
     FM310900 35010KT P6SM VCSH BKN090=



000
FTUS45 KLKN 301700
TAFELY
TAF
KELY 301720Z 3018/3118 VRB03KT P6SM SCT120
     FM302000 01009KT P6SM -TSRA BKN070CB
     FM310400 VRB06KT P6SM VCTS BKN080CB
     FM310700 17007KT P6SM VCSH BKN090=



000
FTUS45 KLKN 301700
TAFWMC
TAF
KWMC 301720Z 3018/3118 VRB06KT P6SM FEW120
     FM302100 33007KT P6SM VCTS SCT090CB
     FM310400 VRB05KT P6SM BKN100=



000
FTUS45 KLKN 301700
TAFEKO
TAF
KEKO 301720Z 3018/3118 VRB05KT P6SM SCT120
     FM302100 05008KT P6SM VCTS BKN090CB
     FM310300 06005KT P6SM VCSH SCT100=



000
FTUS45 KLKN 301700
TAFELY
TAF
KELY 301720Z 3018/3118 VRB03KT P6SM SCT120
     FM302000 01009KT P6SM -TSRA BKN070CB
     FM310400 VRB06KT P6SM VCTS BKN080CB
     FM310700 17007KT P6SM VCSH BKN090=



000
FTUS45 KLKN 301700
TAFTPH
TAF
KTPH 301720Z 3018/3118 36008KT P6SM SCT120 BKN200
     FM302100 34008KT P6SM -TSRA BKN090CB
     FM310300 34014G24KT P6SM VCTS BKN100CB
     FM310900 35010KT P6SM VCSH BKN090=



000
FTUS45 KLKN 301700
TAFEKO
TAF
KEKO 301720Z 3018/3118 VRB05KT P6SM SCT120
     FM302100 05008KT P6SM VCTS BKN090CB
     FM310300 06005KT P6SM VCSH SCT100=



000
FTUS45 KLKN 301700
TAFWMC
TAF
KWMC 301720Z 3018/3118 VRB06KT P6SM FEW120
     FM302100 33007KT P6SM VCTS SCT090CB
     FM310400 VRB05KT P6SM BKN100=



000
FTUS45 KLKN 301100
TAFEKO
TAF
KEKO 301120Z 3012/3112 VRB05KT P6SM SCT120
     FM302100 VRB06KT P6SM VCTS BKN080CB
     FM310300 05005KT P6SM VCSH BKN100=



000
FTUS45 KLKN 301100
TAFWMC
TAF
KWMC 301120Z 3012/3112 VRB06KT P6SM FEW120
     FM302100 34007KT P6SM VCTS BKN090CB
     FM310300 04006KT P6SM VCSH BKN120=



000
FTUS45 KLKN 301100
TAFWMC
TAF
KWMC 301120Z 3012/3112 VRB06KT P6SM FEW120
     FM302100 34007KT P6SM VCTS BKN090CB
     FM310300 04006KT P6SM VCSH BKN120=



000
FTUS45 KLKN 301100
TAFELY
TAF
KELY 301120Z 3012/3112 VRB03KT P6SM FEW120
     FM302000 01009KT P6SM -TSRA BKN070CB
     FM310400 VRB06KT P6SM VCSH BKN090=



000
FTUS45 KLKN 301100
TAFTPH
TAF
KTPH 301120Z 3012/3112 01010KT P6SM BKN120
     FM302200 34008G18KT P6SM -TSRA BKN090CB
     FM310300 34010KT P6SM VCSH BKN100=



000
FTUS45 KLKN 301100
TAFTPH
TAF
KTPH 301120Z 3012/3112 01010KT P6SM BKN120
     FM302200 34008G18KT P6SM -TSRA BKN090CB
     FM310300 34010KT P6SM VCSH BKN100=



000
FTUS45 KLKN 301100
TAFELY
TAF
KELY 301120Z 3012/3112 VRB03KT P6SM FEW120
     FM302000 01009KT P6SM -TSRA BKN070CB
     FM310400 VRB06KT P6SM VCSH BKN090=



000
FTUS45 KLKN 301100
TAFEKO
TAF
KEKO 301120Z 3012/3112 VRB05KT P6SM SCT120
     FM302100 VRB06KT P6SM VCTS BKN080CB
     FM310300 05005KT P6SM VCSH BKN100=



000
FTUS45 KLKN 300500
TAFWMC
TAF
KWMC 300525Z 3006/3106 35006KT P6SM VCSH BKN120
     FM301200 VRB03KT P6SM SCT120
     FM302100 34007KT P6SM VCTS BKN090CB
     FM310300 04006KT P6SM VCSH BKN120=



000
FTUS45 KLKN 300500
TAFELY
TAF
KELY 300525Z 3006/3106 VRB06KT P6SM VCSH BKN120
     FM301400 36006KT P6SM SCT120
     FM302000 01009KT P6SM -TSRA BKN070CB
     FM310400 VRB06KT P6SM VCSH BKN090=



000
FTUS45 KLKN 300500
TAFTPH
TAF
KTPH 300525Z 3006/3106 36007KT P6SM BKN090
     FM301400 02007KT P6SM SCT120
     FM302200 34008G18KT P6SM -TSRA BKN090CB
     FM310300 34010KT P6SM VCSH BKN100=



000
FTUS45 KLKN 300500
TAFEKO
TAF
KEKO 300525Z 3006/3106 03005KT P6SM VCSH BKN100
     FM301200 VRB03KT P6SM SCT120
     FM302100 VRB06KT P6SM VCTS BKN080CB
     FM310300 05005KT P6SM VCSH BKN100=



000
FTUS45 KLKN 300500
TAFELY
TAF
KELY 300525Z 3006/3106 VRB06KT P6SM VCSH BKN120
     FM301400 36006KT P6SM SCT120
     FM302000 01009KT P6SM -TSRA BKN070CB
     FM310400 VRB06KT P6SM VCSH BKN090=



000
FTUS45 KLKN 300500
TAFTPH
TAF
KTPH 300525Z 3006/3106 36007KT P6SM BKN090
     FM301400 02007KT P6SM SCT120
     FM302200 34008G18KT P6SM -TSRA BKN090CB
     FM310300 34010KT P6SM VCSH BKN100=



000
FTUS45 KLKN 300500
TAFWMC
TAF
KWMC 300525Z 3006/3106 35006KT P6SM VCSH BKN120
     FM301200 VRB03KT P6SM SCT120
     FM302100 34007KT P6SM VCTS BKN090CB
     FM310300 04006KT P6SM VCSH BKN120=



000
FTUS45 KLKN 300500
TAFEKO
TAF
KEKO 300525Z 3006/3106 03005KT P6SM VCSH BKN100
     FM301200 VRB03KT P6SM SCT120
     FM302100 VRB06KT P6SM VCTS BKN080CB
     FM310300 05005KT P6SM VCSH BKN100=



000
FTUS45 KLKN 300300 AAA
TAFELY
TAF AMD
KELY 300312Z 3003/3024 VRB06KT P6SM VCSH BKN070
      TEMPO 3003/3005 VRB25G40KT 5SM -TSRA OVC060CB
     FM302000 01009KT P6SM VCTS BKN070CB=



000
FTUS45 KLKN 300300 AAA
TAFELY
TAF AMD
KELY 300312Z 3003/3024 VRB06KT P6SM VCSH BKN070
      TEMPO 3003/3005 VRB25G40KT 5SM -TSRA OVC060CB
     FM302000 01009KT P6SM VCTS BKN070CB=



000
FTUS45 KLKN 300300 AAA
TAFTPH
TAF AMD
KTPH 300305Z 3003/3024 36007KT P6SM SCT120 BKN200
     FM302200 34005KT P6SM -TSRA BKN090CB=



000
FTUS45 KLKN 300300 AAA
TAFTPH
TAF AMD
KTPH 300305Z 3003/3024 36007KT P6SM SCT120 BKN200
     FM302200 34005KT P6SM -TSRA BKN090CB=



000
FTUS45 KLKN 300300 AAB
TAFWMC
TAF AMD
KWMC 300300Z 3003/3024 35006KT P6SM VCSH SCT080 BKN120
     FM301200 VRB03KT P6SM FEW120 SCT200
     FM302100 34007KT P6SM VCTS BKN090CB=



000
FTUS45 KLKN 300300 AAB
TAFWMC
TAF AMD
KWMC 300300Z 3003/3024 35006KT P6SM VCSH SCT080 BKN120
     FM301200 VRB03KT P6SM FEW120 SCT200
     FM302100 34007KT P6SM VCTS BKN090CB=



000
FTUS45 KLKN 292300 AAA
TAFWMC
TAF AMD
KWMC 292350Z 3000/3024 04010KT P6SM VCTS SCT040CB BKN080
      TEMPO 3000/3004 VRB25G50KT 3SM -TSRA BLDU SCT020CB BKN070
     FM300500 VRB05KT P6SM VCSH BKN100
     FM301200 VRB03KT P6SM SCT150
     FM302000 34007KT P6SM VCTS BKN090CB=



000
FTUS45 KLKN 292300 AAA
TAFWMC
TAF AMD
KWMC 292350Z 3000/3024 04010KT P6SM VCTS SCT040CB BKN080
      TEMPO 3000/3004 VRB25G50KT 3SM -TSRA BLDU SCT020CB BKN070
     FM300500 VRB05KT P6SM VCSH BKN100
     FM301200 VRB03KT P6SM SCT150
     FM302000 34007KT P6SM VCTS BKN090CB=



000
FTUS45 KLKN 292300
TAFEKO
TAF
KEKO 292321Z 3000/3024 25009KT P6SM VCTS SCT060CB OVC080
      TEMPO 3000/3004 VRB12G25KT -TSRA BKN060CB
     FM300400 VRB05KT P6SM VCSH SCT050 BKN070
     FM302000 VRB06KT P6SM VCTS BKN080CB=



000
FTUS45 KLKN 292300
TAFELY
TAF
KELY 292321Z 3000/3024 36010KT P6SM VCTS SCT040CB OVC060
      TEMPO 3000/3004 VRB15G30KT 5SM TSRA BKN040CB
     FM300500 17007KT P6SM VCSH SCT040 BKN070
     FM302000 01009KT P6SM VCTS BKN070CB=



000
FTUS45 KLKN 292300
TAFWMC
TAF
KWMC 292321Z 3000/3024 28008KT P6SM VCTS BKN080CB
      TEMPO 3000/3004 VRB15G30KT -TSRA BKN060CB
     FM300500 VRB05KT P6SM VCSH BKN100
     FM301200 VRB03KT P6SM SCT150
     FM302000 34007KT P6SM VCTS BKN090CB=



000
FTUS45 KLKN 292300
TAFTPH
TAF
KTPH 292321Z 3000/3024 33012G22KT P6SM SCT120
     FM300500 35007KT P6SM SKC
     FM302000 34005KT P6SM VCTS BKN070CB=



000
FTUS45 KLKN 292100 AAA
TAFTPH
TAF AMD
KTPH 292128Z 2921/3018 35012G22KT P6SM SCT080
     FM300000 35012G25KT P6SM VCTS SCT040CB OVC060
     FM300400 35010KT P6SM SCT060 BKN080=



000
FTUS45 KLKN 292100 AAA
TAFTPH
TAF AMD
KTPH 292128Z 2921/3018 35012G22KT P6SM SCT080
     FM300000 35012G25KT P6SM VCTS SCT040CB OVC060
     FM300400 35010KT P6SM SCT060 BKN080=



000
FTUS45 KLKN 291700
TAFELY
TAF
KELY 291720Z 2918/3018 VRB05KT P6SM VCSH BKN050 OVC070
     FM292000 34010KT P6SM VCTS BKN060CB
      TEMPO 2920/2924 VRB15G40KT 5SM TSRA BKN040CB
     FM300000 35010KT P6SM VCTS SCT040CB OVC060
      TEMPO 3000/3004 VRB15G35KT 5SM TSRA BKN040CB
     FM300400 02007KT P6SM VCSH SCT040 BKN070=



000
FTUS45 KLKN 291700
TAFWMC
TAF
KWMC 291720Z 2918/3018 24009KT P6SM SCT120 BKN180
     FM292000 26009KT P6SM VCTS BKN100CB
      TEMPO 2920/2924 VRB15G35KT -TSRA SCT060CB BKN080
     FM300000 34008KT P6SM VCTS SCT060CB BKN080
      TEMPO 3000/3004 VRB15G30KT -TSRA BKN060CB
     FM300400 VRB05KT P6SM SCT060=



000
FTUS45 KLKN 291700
TAFTPH
TAF
KTPH 291720Z 2918/3018 35009KT P6SM VCSH SCT040 OVC070
     FM292000 36012G22KT P6SM VCTS BKN060CB
      TEMPO 2920/2924 VRB15G35KT TSRA BKN050CB
     FM300000 35015G25KT P6SM VCTS SCT040CB OVC060
     FM300300 35015G25KT P6SM VCSH SCT060 BKN080=



000
FTUS45 KLKN 291700
TAFEKO
TAF
KEKO 291720Z 2918/3018 18007KT P6SM VCSH SCT100 BKN150
     FM292000 15008KT P6SM VCTS BKN090CB
      TEMPO 2920/2924 VRB15G35KT -TSRA BKN060CB
     FM300000 05008KT P6SM VCTS SCT060CB OVC100
      TEMPO 3000/3003 VRB15G25KT -TSRA BKN060CB
     FM300400 VRB05KT P6SM SCT080 BKN120=



000
FTUS45 KLKN 291700
TAFEKO
TAF
KEKO 291720Z 2918/3018 18007KT P6SM VCSH SCT100 BKN150
     FM292000 15008KT P6SM VCTS BKN090CB
      TEMPO 2920/2924 VRB15G35KT -TSRA BKN060CB
     FM300000 05008KT P6SM VCTS SCT060CB OVC100
      TEMPO 3000/3003 VRB15G25KT -TSRA BKN060CB
     FM300400 VRB05KT P6SM SCT080 BKN120=



000
FTUS45 KLKN 291700
TAFWMC
TAF
KWMC 291720Z 2918/3018 24009KT P6SM SCT120 BKN180
     FM292000 26009KT P6SM VCTS BKN100CB
      TEMPO 2920/2924 VRB15G35KT -TSRA SCT060CB BKN080
     FM300000 34008KT P6SM VCTS SCT060CB BKN080
      TEMPO 3000/3004 VRB15G30KT -TSRA BKN060CB
     FM300400 VRB05KT P6SM SCT060=



000
FTUS45 KLKN 291700
TAFTPH
TAF
KTPH 291720Z 2918/3018 35009KT P6SM VCSH SCT040 OVC070
     FM292000 36012G22KT P6SM VCTS BKN060CB
      TEMPO 2920/2924 VRB15G35KT TSRA BKN050CB
     FM300000 35015G25KT P6SM VCTS SCT040CB OVC060
     FM300300 35015G25KT P6SM VCSH SCT060 BKN080=



000
FTUS45 KLKN 291700
TAFELY
TAF
KELY 291720Z 2918/3018 VRB05KT P6SM VCSH BKN050 OVC070
     FM292000 34010KT P6SM VCTS BKN060CB
      TEMPO 2920/2924 VRB15G40KT 5SM TSRA BKN040CB
     FM300000 35010KT P6SM VCTS SCT040CB OVC060
      TEMPO 3000/3004 VRB15G35KT 5SM TSRA BKN040CB
     FM300400 02007KT P6SM VCSH SCT040 BKN070=



000
FTUS45 KLKN 291600 AAA
TAFELY
TAF AMD
KELY 291623Z 2916/3012 VRB05KT P6SM VCSH BKN060
      TEMPO 2916/2920 4SM HZ SCT060 OVC080
     FM292000 34010KT P6SM VCTS BKN060CB
      TEMPO 2920/2924 VRB25G40KT 5SM TSRA BKN050CB
     FM300000 35009KT P6SM VCTS SCT040CB OVC070
      TEMPO 3000/3004 VRB20G35KT 5SM TSRA BKN040CB
     FM300400 02007KT P6SM VCSH SCT030 BKN050=



000
FTUS45 KLKN 291600 AAA
TAFELY
TAF AMD
KELY 291623Z 2916/3012 VRB05KT P6SM VCSH BKN060
      TEMPO 2916/2920 4SM HZ SCT060 OVC080
     FM292000 34010KT P6SM VCTS BKN060CB
      TEMPO 2920/2924 VRB25G40KT 5SM TSRA BKN050CB
     FM300000 35009KT P6SM VCTS SCT040CB OVC070
      TEMPO 3000/3004 VRB20G35KT 5SM TSRA BKN040CB
     FM300400 02007KT P6SM VCSH SCT030 BKN050=



    US Dept of Commerce
    National Oceanic and Atmospheric Administration
    National Weather Service
    1325 East West Highway
    Silver Spring, MD 20910
    Page Author: NWS Internet Services Team
Disclaimer
Information Quality
Credits
Glossary
Privacy Policy
Freedom of Information Act (FOIA)
About Us
Career Opportunities